Time;durP1;ratioP1;P1;durP2;ratioP2;P2;SDS_P1;SDS_P2;PMS_P1;PMS_P2;Temp;Humidity;BMP_temperature;BMP_pressure;BME280_temperature;BME280_humidity;BME280_pressure;Samples;Min_cycle;Max_cycle;Signal;HPM_P1;HPM_P2
2022/07/07 00:00:56;;;;;;;8.00;4.00;;;;;;;16.55;100.00;99891.63;4903961;29;20026;-86
2022/07/07 00:03:22;;;;;;;9.88;4.03;;;;;;;16.85;100.00;99875.91;4871461;29;20120;-87
2022/07/07 00:05:48;;;;;;;5.97;3.40;;;;;;;16.73;100.00;99893.53;4876619;29;20032;-87
2022/07/07 00:08:14;;;;;;;6.13;3.15;;;;;;;16.97;100.00;99883.16;4893976;29;20506;-87
2022/07/07 00:10:40;;;;;;;9.48;3.30;;;;;;;16.67;100.00;99870.53;4904892;29;20032;-86
2022/07/07 00:13:05;;;;;;;11.35;2.83;;;;;;;16.60;100.00;99869.75;4889311;29;20071;-86
2022/07/07 00:15:31;;;;;;;5.10;2.65;;;;;;;16.46;100.00;99871.66;4884991;29;20121;-86
2022/07/07 00:17:57;;;;;;;6.22;2.67;;;;;;;16.47;100.00;99873.28;4903652;29;20036;-85
2022/07/07 00:20:26;;;;;;;7.10;2.70;;;;;;;16.29;100.00;99866.88;4910962;29;20035;-88
2022/07/07 00:22:54;;;;;;;5.15;2.53;;;;;;;16.04;100.00;99867.59;4892802;29;20045;-88
2022/07/07 00:25:20;;;;;;;7.70;2.75;;;;;;;16.35;100.00;99881.09;4908892;29;20115;-86
2022/07/07 00:27:45;;;;;;;5.53;2.63;;;;;;;16.24;100.00;99896.66;4906256;29;20032;-87
2022/07/07 00:30:15;;;;;;;6.30;2.78;;;;;;;16.02;100.00;99898.78;4909265;29;20104;-88
2022/07/07 00:32:41;;;;;;;4.90;2.20;;;;;;;16.33;100.00;99914.94;4890865;29;20514;-87
2022/07/07 00:35:07;;;;;;;7.45;2.80;;;;;;;16.08;100.00;99918.31;4903400;29;20044;-88
2022/07/07 00:37:33;;;;;;;6.88;2.90;;;;;;;15.99;100.00;99920.38;4871868;29;20052;-87
2022/07/07 00:39:58;;;;;;;6.47;2.63;;;;;;;15.96;100.00;99903.06;4889412;29;20028;-86
2022/07/07 00:42:24;;;;;;;10.45;3.38;;;;;;;15.84;100.00;99908.16;4908769;29;20127;-86
2022/07/07 00:44:49;;;;;;;8.07;2.38;;;;;;;15.70;100.00;99906.56;4887074;29;20028;-87
2022/07/07 00:47:15;;;;;;;8.90;2.90;;;;;;;15.74;100.00;99909.63;4886271;29;20055;-89
2022/07/07 00:49:41;;;;;;;7.28;2.30;;;;;;;15.81;100.00;99921.81;4899591;29;20028;-87
2022/07/07 00:52:08;;;;;;;9.75;3.15;;;;;;;15.94;100.00;99938.72;4906043;29;20036;-89
2022/07/07 00:54:34;;;;;;;11.00;2.58;;;;;;;15.87;100.00;99941.34;4902454;29;20036;-86
2022/07/07 00:57:00;;;;;;;15.07;3.83;;;;;;;15.75;100.00;99940.34;4906382;29;20056;-88
2022/07/07 00:59:26;;;;;;;9.63;2.70;;;;;;;16.07;100.00;99943.19;4890811;29;20510;-88
2022/07/07 01:01:52;;;;;;;10.48;3.17;;;;;;;15.67;100.00;99917.56;4872499;29;20058;-86
2022/07/07 01:04:18;;;;;;;6.40;2.88;;;;;;;15.85;100.00;99907.13;4905202;29;20035;-86
2022/07/07 01:06:43;;;;;;;7.70;2.30;;;;;;;15.93;100.00;99894.75;4883881;29;20033;-88
2022/07/07 01:09:09;;;;;;;7.25;3.00;;;;;;;15.82;100.00;99891.69;4908515;29;20037;-89
2022/07/07 01:11:47;;;;;;;6.10;2.72;;;;;;;15.70;100.00;99896.81;4888885;29;20032;-87
2022/07/07 01:14:13;;;;;;;6.88;2.42;;;;;;;15.47;100.00;99907.81;4905590;29;20043;-86
2022/07/07 01:16:39;;;;;;;5.32;2.10;;;;;;;15.47;100.00;99928.19;4891690;29;20036;-86
2022/07/07 01:19:07;;;;;;;5.43;2.70;;;;;;;15.26;100.00;99940.59;4886098;29;20039;-88
2022/07/07 01:21:43;;;;;;;8.57;2.58;;;;;;;15.44;100.00;99904.78;4871757;29;20119;-85
2022/07/07 01:24:08;;;;;;;4.63;2.50;;;;;;;15.47;100.00;99897.22;4889903;29;20063;-85
2022/07/07 01:26:36;;;;;;;5.22;2.53;;;;;;;15.38;100.00;99891.34;4906866;29;20056;-86
2022/07/07 01:29:02;;;;;;;10.02;2.20;;;;;;;15.26;100.00;99898.28;4901807;29;20024;-85
2022/07/07 01:31:27;;;;;;;4.57;2.38;;;;;;;15.17;100.00;99900.31;4886642;29;20398;-85
2022/07/07 01:33:53;;;;;;;8.25;2.50;;;;;;;15.14;100.00;99914.75;4903094;29;20057;-89
2022/07/07 01:36:18;;;;;;;7.45;2.88;;;;;;;15.35;100.00;99917.41;4905807;29;20037;-87
2022/07/07 01:38:44;;;;;;;8.48;2.80;;;;;;;15.15;100.00;99915.59;4888010;29;20029;-87
2022/07/07 01:41:09;;;;;;;7.45;2.80;;;;;;;15.48;100.00;99935.91;4906307;29;20160;-87
2022/07/07 01:43:35;;;;;;;9.52;2.70;;;;;;;15.46;100.00;99932.66;4905909;29;20044;-84
2022/07/07 01:46:00;;;;;;;6.78;2.22;;;;;;;15.11;100.00;99935.50;4904982;29;20107;-87
2022/07/07 01:48:26;;;;;;;5.22;2.60;;;;;;;15.21;100.00;99935.91;4905054;29;20033;-86
2022/07/07 01:50:52;;;;;;;6.07;2.33;;;;;;;15.20;100.00;99944.88;4909921;29;20402;-85
2022/07/07 01:53:17;;;;;;;7.57;2.25;;;;;;;15.14;100.00;99950.97;4905468;29;20033;-87
2022/07/07 01:55:43;;;;;;;9.18;2.58;;;;;;;15.25;100.00;99953.00;4904072;29;20115;-87
2022/07/07 01:58:08;;;;;;;7.28;2.47;;;;;;;15.28;100.00;99967.66;4905648;29;20039;-86
2022/07/07 02:00:34;;;;;;;6.18;2.35;;;;;;;14.84;100.00;99969.81;4906401;29;20452;-85
2022/07/07 02:03:00;;;;;;;10.02;2.65;;;;;;;15.15;100.00;99957.88;4899201;29;20032;-85
2022/07/07 02:05:25;;;;;;;6.70;2.60;;;;;;;15.18;100.00;99951.38;4900192;29;20055;-86
2022/07/07 02:07:50;;;;;;;7.55;2.35;;;;;;;15.25;100.00;99944.25;4908940;29;20032;-86
2022/07/07 02:11:12;;;;;;;4.40;2.10;;;;;;;15.04;100.00;99951.38;4890843;29;20486;-87
2022/07/07 02:13:01;;;;;;;6.07;2.05;;;;;;;15.13;100.00;99958.06;4888675;29;20054;-87
2022/07/07 02:15:27;;;;;;;7.88;2.50;;;;;;;15.38;100.00;99962.78;4889427;29;20040;-88
2022/07/07 02:17:53;;;;;;;4.00;1.77;;;;;;;15.12;100.00;99968.84;4889696;29;20172;-88
2022/07/07 02:20:19;;;;;;;6.03;2.35;;;;;;;15.11;100.00;99988.38;4910042;29;20029;-87
2022/07/07 02:22:44;;;;;;;8.68;3.15;;;;;;;15.26;100.00;99978.44;4905810;29;20040;-86
2022/07/07 02:25:10;;;;;;;7.55;2.38;;;;;;;15.15;100.00;99971.13;4912564;29;20033;-87
2022/07/07 02:27:35;;;;;;;3.55;2.38;;;;;;;15.12;100.00;99980.25;4908352;29;20032;-88
2022/07/07 02:30:01;;;;;;;10.70;2.65;;;;;;;15.06;100.00;99973.13;4905786;29;20051;-86
2022/07/07 02:32:26;;;;;;;7.93;2.70;;;;;;;15.03;100.00;99962.94;4914830;29;20076;-86
2022/07/07 02:34:52;;;;;;;7.22;2.28;;;;;;;15.36;100.00;99980.69;4909495;29;20131;-84
2022/07/07 02:37:19;;;;;;;10.15;3.30;;;;;;;15.17;100.00;99992.06;4909876;29;20135;-87
2022/07/07 02:39:44;;;;;;;10.95;2.38;;;;;;;14.96;100.00;99992.03;4878211;29;20040;-86
2022/07/07 02:42:10;;;;;;;7.70;2.85;;;;;;;15.28;100.00;99994.91;4889915;29;20368;-86
2022/07/07 02:44:35;;;;;;;8.90;3.33;;;;;;;15.19;100.00;100001.41;4908042;29;20452;-86
2022/07/07 02:47:01;;;;;;;8.15;2.42;;;;;;;15.33;100.00;100001.41;4912140;29;20148;-88
2022/07/07 02:49:27;;;;;;;5.75;2.75;;;;;;;15.17;100.00;100005.28;4891751;29;20124;-88
2022/07/07 02:51:52;;;;;;;6.18;2.80;;;;;;;15.40;100.00;100007.56;4894086;29;20047;-86
2022/07/07 02:54:18;;;;;;;11.80;2.92;;;;;;;15.22;100.00;99994.91;4909844;29;20038;-87
2022/07/07 02:56:43;;;;;;;9.13;2.70;;;;;;;15.16;100.00;99993.91;4892486;29;20035;-86
2022/07/07 02:59:09;;;;;;;10.63;3.17;;;;;;;15.19;100.00;99990.84;4888428;29;20097;-86
2022/07/07 03:01:34;;;;;;;10.55;3.20;;;;;;;15.29;100.00;100016.91;4906851;29;20036;-85
2022/07/07 03:04:00;;;;;;;9.57;2.85;;;;;;;15.25;100.00;100005.91;4910697;29;20399;-85
2022/07/07 03:06:25;;;;;;;10.48;3.00;;;;;;;15.30;100.00;100009.75;4907625;29;20051;-85
2022/07/07 03:08:51;;;;;;;8.32;2.95;;;;;;;15.40;100.00;100007.56;4909977;29;20044;-87
2022/07/07 03:11:16;;;;;;;5.18;2.45;;;;;;;15.52;100.00;100021.78;4911072;29;20494;-87
2022/07/07 03:13:43;;;;;;;4.95;2.53;;;;;;;15.41;100.00;100019.75;4889921;29;20128;-87
2022/07/07 03:16:08;;;;;;;6.38;3.03;;;;;;;15.01;100.00;100019.69;4907380;29;20130;-86
2022/07/07 03:18:35;;;;;;;9.02;2.78;;;;;;;14.95;100.00;100019.47;4904421;29;20067;-86
2022/07/07 03:21:00;;;;;;;4.25;2.58;;;;;;;15.28;100.00;100013.44;4890709;29;20028;-85
2022/07/07 03:23:26;;;;;;;9.75;2.60;;;;;;;14.96;100.00;100029.03;4907834;29;20547;-86
2022/07/07 03:25:51;;;;;;;7.65;2.90;;;;;;;15.23;100.00;100026.44;4891441;29;20680;-86
2022/07/07 03:28:17;;;;;;;5.47;2.80;;;;;;;15.28;100.00;100025.84;4903654;29;20470;-87
2022/07/07 03:30:42;;;;;;;11.82;3.50;;;;;;;15.17;100.00;100034.34;4887795;29;20125;-87
2022/07/07 03:33:08;;;;;;;7.43;3.10;;;;;;;15.15;100.00;100029.28;4889217;29;20038;-87
2022/07/07 03:35:33;;;;;;;7.93;3.13;;;;;;;15.12;100.00;100021.72;4906285;29;20038;-88
2022/07/07 03:37:59;;;;;;;5.78;2.60;;;;;;;15.38;100.00;100020.16;4911980;29;20028;-86
2022/07/07 03:40:24;;;;;;;6.22;2.47;;;;;;;14.80;100.00;100029.38;4909373;29;20032;-86
2022/07/07 03:42:50;;;;;;;9.85;2.53;;;;;;;14.74;100.00;100032.78;4887640;29;20032;-85
2022/07/07 03:45:16;;;;;;;5.53;2.50;;;;;;;15.07;100.00;100050.59;4906457;29;20156;-86
2022/07/07 03:47:41;;;;;;;7.78;2.97;;;;;;;15.08;100.00;100044.31;4889863;29;20185;-86
2022/07/07 03:50:07;;;;;;;7.35;2.20;;;;;;;15.13;100.00;100047.16;4906130;29;20052;-86
2022/07/07 03:52:33;;;;;;;7.32;2.30;;;;;;;15.16;100.00;100054.72;4890434;29;20413;-85
2022/07/07 03:54:59;;;;;;;9.18;2.58;;;;;;;15.07;100.00;100066.47;4903804;29;20040;-88
2022/07/07 03:57:25;;;;;;;10.88;2.90;;;;;;;15.32;100.00;100052.69;4910840;29;20028;-85
2022/07/07 03:59:50;;;;;;;5.95;2.60;;;;;;;15.39;100.00;100058.84;4874483;29;20398;-86
2022/07/07 04:02:16;;;;;;;6.18;2.55;;;;;;;15.32;100.00;100047.41;4890226;29;20402;-86
2022/07/07 04:04:41;;;;;;;5.47;1.90;;;;;;;15.17;100.00;100051.06;4903895;29;20115;-88
2022/07/07 04:07:07;;;;;;;8.98;2.05;;;;;;;15.50;100.00;100050.28;4886510;29;20520;-87
2022/07/07 04:09:32;;;;;;;6.40;2.23;;;;;;;15.53;100.00;100055.19;4904454;29;20036;-87
2022/07/07 04:11:58;;;;;;;4.53;2.38;;;;;;;15.51;100.00;100051.91;4906536;29;20475;-87
2022/07/07 04:14:23;;;;;;;3.90;2.03;;;;;;;15.51;100.00;100062.50;4906700;29;20659;-87
2022/07/07 04:16:49;;;;;;;5.95;2.22;;;;;;;15.53;100.00;100071.06;4910602;29;20044;-89
2022/07/07 04:19:14;;;;;;;4.97;2.13;;;;;;;15.56;100.00;100075.13;4888455;29;20036;-87
2022/07/07 04:21:40;;;;;;;2.58;1.95;;;;;;;15.69;100.00;100082.25;4889230;29;20020;-86
2022/07/07 04:24:06;;;;;;;3.33;1.83;;;;;;;15.91;100.00;100082.09;4902070;29;20032;-87
2022/07/07 04:26:32;;;;;;;3.78;1.90;;;;;;;16.03;100.00;100093.72;4908848;29;20042;-86
2022/07/07 04:28:57;;;;;;;2.65;1.50;;;;;;;16.07;100.00;100105.50;4891192;29;20016;-86
2022/07/07 04:31:23;;;;;;;3.78;1.75;;;;;;;15.90;100.00;100091.88;4902406;29;20486;-88
2022/07/07 04:33:49;;;;;;;3.67;1.83;;;;;;;15.99;100.00;100095.94;4906940;29;20036;-86
2022/07/07 04:36:14;;;;;;;5.28;1.75;;;;;;;16.31;100.00;100103.28;4906533;29;20087;-89
2022/07/07 04:38:40;;;;;;;2.97;2.00;;;;;;;16.24;100.00;100102.44;4908716;29;20387;-86
2022/07/07 04:41:08;;;;;;;3.15;1.83;;;;;;;16.27;100.00;100108.16;4897560;29;20479;-88
2022/07/07 04:43:33;;;;;;;4.63;2.28;;;;;;;16.30;100.00;100104.28;4903168;29;20091;-87
2022/07/07 04:45:59;;;;;;;6.95;2.72;;;;;;;16.37;100.00;100107.75;4910147;29;20080;-88
2022/07/07 04:48:25;;;;;;;4.22;2.20;;;;;;;16.33;100.00;100092.47;4902485;29;20112;-88
2022/07/07 04:50:50;;;;;;;4.30;2.25;;;;;;;16.25;100.00;100119.97;4887847;29;20123;-87
2022/07/07 04:53:16;;;;;;;5.63;2.15;;;;;;;16.64;100.00;100122.78;4897402;29;20152;-87
2022/07/07 04:55:42;;;;;;;7.47;2.47;;;;;;;16.82;100.00;100124.75;4885304;29;20131;-87
2022/07/07 04:58:08;;;;;;;4.43;2.10;;;;;;;16.63;100.00;100129.91;4889370;29;20123;-88
2022/07/07 05:00:34;;;;;;;5.93;2.47;;;;;;;16.84;100.00;100133.31;4908580;29;20103;-87
2022/07/07 05:03:02;;;;;;;3.50;2.15;;;;;;;16.99;100.00;100141.88;4884518;29;20476;-86
2022/07/07 05:05:28;;;;;;;6.68;2.25;;;;;;;16.84;100.00;100143.91;4889968;29;20403;-85
2022/07/07 05:07:53;;;;;;;5.72;2.30;;;;;;;16.63;100.00;100143.16;4868927;29;20028;-87
2022/07/07 05:10:19;;;;;;;5.00;2.22;;;;;;;17.12;100.00;100148.94;4905393;29;20091;-87
2022/07/07 05:12:44;;;;;;;4.00;2.30;;;;;;;17.23;100.00;100160.75;4888053;29;20451;-86
2022/07/07 05:15:10;;;;;;;4.30;2.47;;;;;;;17.06;100.00;100160.41;4875142;29;20127;-87
2022/07/07 05:17:36;;;;;;;3.28;2.63;;;;;;;16.90;100.00;100171.44;4887296;29;20095;-88
2022/07/07 05:20:03;;;;;;;7.80;2.33;;;;;;;17.08;100.00;100163.66;4884949;29;20028;-88
2022/07/07 05:22:28;;;;;;;3.67;2.70;;;;;;;16.99;100.00;100179.00;4905472;29;20040;-87
2022/07/07 05:24:54;;;;;;;4.07;2.20;;;;;;;17.24;100.00;100174.84;4890862;29;20036;-89
2022/07/07 05:27:20;;;;;;;3.40;2.20;;;;;;;17.21;100.00;100181.38;4906975;29;20088;-87
2022/07/07 05:29:46;;;;;;;3.38;2.13;;;;;;;17.21;100.00;100173.41;4888003;29;20032;-85
2022/07/07 05:32:11;;;;;;;6.38;2.10;;;;;;;17.38;100.00;100183.56;4886527;29;20040;-88
2022/07/07 05:34:37;;;;;;;5.88;1.80;;;;;;;17.39;100.00;100182.53;4890265;29;20044;-88
2022/07/07 05:37:02;;;;;;;4.93;1.98;;;;;;;17.49;100.00;100187.38;4888640;29;20025;-86
2022/07/07 05:39:30;;;;;;;2.63;1.80;;;;;;;17.74;100.00;100183.97;4905804;29;20063;-87
2022/07/07 05:41:55;;;;;;;3.22;1.63;;;;;;;17.99;100.00;100191.97;4886563;29;20894;-86
2022/07/07 05:44:21;;;;;;;1.92;1.40;;;;;;;17.80;100.00;100193.75;4891651;29;20057;-86
2022/07/07 05:46:46;;;;;;;3.88;1.65;;;;;;;18.23;100.00;100197.56;4911995;29;20088;-85
2022/07/07 05:49:12;;;;;;;2.30;1.20;;;;;;;17.62;100.00;100203.25;4908951;29;20115;-89
2022/07/07 05:51:38;;;;;;;3.67;1.52;;;;;;;17.56;100.00;100209.38;4874547;29;20111;-87
2022/07/07 05:54:04;;;;;;;3.13;1.63;;;;;;;17.79;100.00;100197.44;4876488;29;20029;-88
2022/07/07 05:56:30;;;;;;;2.63;1.52;;;;;;;17.62;100.00;100218.34;4913422;29;20043;-87
2022/07/07 05:58:55;;;;;;;3.17;1.58;;;;;;;17.90;100.00;100217.19;4910027;29;20370;-88
2022/07/07 06:01:21;;;;;;;3.67;1.50;;;;;;;17.77;100.00;100226.84;4907143;29;20028;-88
2022/07/07 06:03:47;;;;;;;2.85;1.50;;;;;;;18.04;100.00;100232.03;4905961;29;20040;-88
2022/07/07 06:06:14;;;;;;;2.13;1.60;;;;;;;17.98;100.00;100224.88;4923836;29;20426;-91
2022/07/07 06:08:40;;;;;;;3.58;1.80;;;;;;;18.15;100.00;100240.34;4875278;29;20036;-91
2022/07/07 06:11:06;;;;;;;3.65;1.48;;;;;;;18.28;100.00;100248.22;4917282;29;20080;-90
2022/07/07 06:13:31;;;;;;;2.92;1.30;;;;;;;18.46;100.00;100249.31;4919474;29;20561;-91
2022/07/07 06:15:57;;;;;;;2.72;1.20;;;;;;;18.56;100.00;100244.31;4906030;29;20043;-91
2022/07/07 06:18:23;;;;;;;1.80;1.40;;;;;;;18.51;100.00;100260.91;4901724;29;20032;-91
2022/07/07 06:20:49;;;;;;;1.40;1.30;;;;;;;18.51;100.00;100260.13;4882534;29;20028;-90
2022/07/07 06:23:14;;;;;;;4.05;1.80;;;;;;;18.64;100.00;100265.31;4912681;29;20025;-90
2022/07/07 06:25:40;;;;;;;2.53;1.42;;;;;;;18.62;100.00;100267.38;4880529;29;20510;-91
2022/07/07 06:28:06;;;;;;;2.58;1.30;;;;;;;18.83;100.00;100265.34;4919513;29;20048;-89
2022/07/07 06:30:32;;;;;;;2.70;1.30;;;;;;;19.03;100.00;100259.06;4876531;29;20064;-91
2022/07/07 06:32:57;;;;;;;2.72;1.58;;;;;;;18.82;100.00;100269.88;4904174;29;20522;-90
2022/07/07 06:35:24;;;;;;;3.35;1.65;;;;;;;19.13;100.00;100275.34;4899860;29;20033;-89
2022/07/07 06:37:52;;;;;;;3.22;1.40;;;;;;;19.23;100.00;100269.50;4895987;29;20051;-89
2022/07/07 06:40:21;;;;;;;3.20;1.45;;;;;;;19.43;100.00;100269.25;4876992;29;20024;-90
2022/07/07 06:42:47;;;;;;;3.40;1.52;;;;;;;19.44;100.00;100288.72;4899496;29;20055;-88
2022/07/07 06:45:13;;;;;;;10.45;1.92;;;;;;;19.46;100.00;100294.63;4900106;29;20033;-88
2022/07/07 06:47:39;;;;;;;1.88;1.52;;;;;;;19.22;100.00;100295.28;4907765;29;20037;-87
2022/07/07 06:50:05;;;;;;;2.78;1.42;;;;;;;19.45;100.00;100303.66;4889982;29;20395;-87
2022/07/07 06:52:31;;;;;;;2.55;1.60;;;;;;;19.64;100.00;100310.59;4877083;29;20068;-86
2022/07/07 06:54:56;;;;;;;2.38;1.33;;;;;;;19.53;100.00;100306.00;4877983;29;20482;-89
2022/07/07 06:57:25;;;;;;;2.17;1.55;;;;;;;19.36;100.00;100316.47;4860466;29;20093;-86
2022/07/07 06:59:51;;;;;;;3.42;1.60;;;;;;;19.23;100.00;100307.56;4879750;29;20032;-86
2022/07/07 07:02:18;;;;;;;4.57;1.90;;;;;;;19.39;100.00;100316.84;4885531;29;20036;-87
2022/07/07 07:04:43;;;;;;;3.47;1.70;;;;;;;19.72;100.00;100306.81;4907137;29;20035;-87
2022/07/07 07:07:09;;;;;;;1.75;1.42;;;;;;;19.66;100.00;100305.88;4876595;29;20517;-89
2022/07/07 07:09:34;;;;;;;3.03;1.50;;;;;;;19.90;100.00;100315.84;4896373;29;20072;-81
2022/07/07 07:12:02;;;;;;;1.90;1.50;;;;;;;19.64;100.00;100317.78;4915587;29;20047;-88
2022/07/07 07:14:28;;;;;;;3.60;1.60;;;;;;;19.92;100.00;100319.91;4892818;29;20045;-88
2022/07/07 07:16:54;;;;;;;2.58;1.50;;;;;;;19.95;100.00;100313.31;4912846;29;20047;-87
2022/07/07 07:19:19;;;;;;;2.95;1.50;;;;;;;20.20;100.00;100310.53;4892616;29;20043;-89
2022/07/07 07:21:45;;;;;;;2.70;1.40;;;;;;;20.38;100.00;100308.84;4914373;29;20455;-90
2022/07/07 07:24:12;;;;;;;2.45;1.65;;;;;;;20.31;100.00;100322.25;4899185;29;20028;-89
2022/07/07 07:26:38;;;;;;;3.63;1.50;;;;;;;20.58;100.00;100311.19;4895127;29;20100;-88
2022/07/07 07:29:09;;;;;;;3.03;1.73;;;;;;;20.30;100.00;100325.97;4910957;29;20056;-89
2022/07/07 07:31:36;;;;;;;2.27;1.70;;;;;;;20.36;100.00;100319.72;4866520;29;20112;-88
2022/07/07 07:34:02;;;;;;;3.22;1.50;;;;;;;20.41;100.00;100322.50;4914490;29;20035;-86
2022/07/07 07:36:28;;;;;;;3.38;1.48;;;;;;;20.40;100.00;100328.09;4904553;29;20084;-89
2022/07/07 07:38:53;;;;;;;3.05;1.60;;;;;;;20.36;100.00;100324.25;4889671;29;20088;-89
2022/07/07 07:41:20;;;;;;;2.50;1.60;;;;;;;20.83;100.00;100335.03;4899037;29;20114;-89
2022/07/07 07:43:45;;;;;;;3.13;1.67;;;;;;;21.04;99.71;100332.03;4895857;29;20044;-88
2022/07/07 07:46:11;;;;;;;3.83;1.70;;;;;;;21.20;99.26;100331.31;4900616;29;20479;-90
2022/07/07 07:48:37;;;;;;;1.65;1.33;;;;;;;21.12;99.11;100340.47;4914072;29;20043;-89
2022/07/07 07:51:03;;;;;;;3.00;1.50;;;;;;;20.83;98.41;100343.03;4891922;29;20036;-91
2022/07/07 07:53:29;;;;;;;2.33;2.03;;;;;;;21.29;97.75;100339.78;4910953;29;20028;-89
2022/07/07 07:55:54;;;;;;;4.03;1.52;;;;;;;21.59;96.41;100336.13;4902162;29;20424;-86
2022/07/07 07:58:20;;;;;;;2.45;1.50;;;;;;;20.87;98.27;100346.06;4888116;29;20376;-87
2022/07/07 08:00:46;;;;;;;4.03;1.50;;;;;;;21.04;96.61;100340.03;4908987;29;20040;-86
2022/07/07 08:03:11;;;;;;;2.03;1.63;;;;;;;21.00;97.20;100345.03;4905061;29;20028;-88
2022/07/07 08:05:37;;;;;;;2.88;1.65;;;;;;;21.11;96.38;100352.19;4884882;29;20039;-87
2022/07/07 08:08:02;;;;;;;3.65;1.80;;;;;;;21.71;95.37;100357.50;4891886;29;20040;-86
2022/07/07 08:10:28;;;;;;;5.50;2.15;;;;;;;21.63;95.03;100357.88;4905493;29;20025;-86
2022/07/07 08:12:54;;;;;;;3.97;1.52;;;;;;;21.46;94.71;100357.75;4906428;29;20047;-88
2022/07/07 08:15:20;;;;;;;3.95;1.75;;;;;;;21.20;94.94;100363.34;4877335;29;20407;-86
2022/07/07 08:17:54;;;;;;;4.63;1.50;;;;;;;21.45;94.80;100366.81;4887657;29;20041;-87
2022/07/07 08:20:19;;;;;;;3.42;1.35;;;;;;;21.43;93.56;100377.75;4886939;29;20071;-85
2022/07/07 08:22:45;;;;;;;3.47;1.52;;;;;;;21.37;92.86;100371.47;4887444;29;20495;-86
2022/07/07 08:25:11;;;;;;;3.05;1.65;;;;;;;21.25;93.73;100359.97;4885798;29;20052;-88
2022/07/07 08:27:37;;;;;;;6.85;1.80;;;;;;;21.46;93.15;100365.78;4868775;29;20097;-87
2022/07/07 08:30:05;;;;;;;4.40;1.70;;;;;;;21.79;92.29;100372.38;4886220;29;20040;-88
2022/07/07 08:32:31;;;;;;;4.53;1.63;;;;;;;21.69;92.45;100378.31;4871472;29;20124;-88
2022/07/07 08:34:56;;;;;;;1.48;1.38;;;;;;;21.61;90.67;100381.31;4888240;29;20111;-90
2022/07/07 08:37:22;;;;;;;2.00;1.50;;;;;;;21.99;90.64;100387.97;4887872;29;20480;-86
2022/07/07 08:39:47;;;;;;;2.83;1.30;;;;;;;22.12;88.37;100384.25;4872435;29;20036;-86
2022/07/07 08:42:13;;;;;;;1.33;1.23;;;;;;;21.95;86.93;100402.88;4884993;29;20026;-87
2022/07/07 08:44:39;;;;;;;1.30;1.20;;;;;;;22.00;88.18;100404.84;4886141;29;20393;-86
2022/07/07 08:47:05;;;;;;;1.20;1.10;;;;;;;22.11;87.78;100398.66;4879990;29;20039;-85
2022/07/07 08:49:31;;;;;;;1.40;1.30;;;;;;;22.22;87.13;100407.69;4890188;29;20039;-81
2022/07/07 08:51:57;;;;;;;3.03;1.30;;;;;;;22.49;87.41;100407.13;4888952;29;20029;-82
2022/07/07 08:54:25;;;;;;;1.50;1.23;;;;;;;22.31;87.12;100414.28;4885311;29;20036;-82
2022/07/07 08:56:52;;;;;;;1.50;1.40;;;;;;;22.64;86.17;100420.78;4885654;29;20391;-84
2022/07/07 08:59:18;;;;;;;1.75;1.65;;;;;;;22.86;85.89;100412.03;4871956;29;20123;-82
2022/07/07 09:02:01;;;;;;;3.03;1.70;;;;;;;22.73;84.54;100412.34;4890476;29;20044;-82
2022/07/07 09:04:27;;;;;;;1.83;1.40;;;;;;;22.86;84.41;100412.03;4880991;29;20033;-83
2022/07/07 09:06:56;;;;;;;3.47;1.70;;;;;;;23.29;83.43;100417.00;4887823;29;20033;-83
2022/07/07 09:09:37;;;;;;;1.55;1.45;;;;;;;23.02;82.35;100418.44;4887720;29;20040;-83
2022/07/07 09:12:05;;;;;;;1.42;1.33;;;;;;;22.96;82.41;100428.25;4890034;29;20123;-83
2022/07/07 09:14:39;;;;;;;2.55;1.90;;;;;;;23.04;82.42;100424.38;4898889;29;20064;-82
2022/07/07 09:17:28;;;;;;;3.15;1.80;;;;;;;22.82;82.08;100426.97;4906976;29;20475;-83
2022/07/07 09:20:04;;;;;;;2.03;1.90;;;;;;;23.00;81.54;100427.81;4904598;29;20029;-83
2022/07/07 09:22:49;;;;;;;3.90;2.38;;;;;;;23.03;80.53;100432.66;4905162;29;20033;-84
2022/07/07 09:25:18;;;;;;;2.30;1.95;;;;;;;23.00;81.14;100433.16;4901501;29;20048;-83
2022/07/07 09:28:04;;;;;;;2.10;1.90;;;;;;;23.06;80.55;100448.25;4902896;29;20091;-84
2022/07/07 09:30:37;;;;;;;2.47;2.10;;;;;;;23.12;79.53;100444.56;4900438;29;20024;-83
2022/07/07 09:33:04;;;;;;;;;;;;;;;23.11;80.03;100451.00;4910387;29;20115;-83
2022/07/07 09:38:25;;;;;;;3.03;2.28;;;;;;;23.81;77.31;100454.19;4905956;29;20029;-83
2022/07/07 09:40:54;;;;;;;1.98;1.88;;;;;;;23.86;77.10;100460.66;4888867;29;20032;-82
2022/07/07 09:43:20;;;;;;;2.03;1.70;;;;;;;23.74;76.24;100453.53;4887173;29;20075;-84
2022/07/07 09:46:07;;;;;;;4.88;2.10;;;;;;;23.67;77.64;100451.03;4904421;29;20076;-83
2022/07/07 09:48:34;;;;;;;2.95;2.50;;;;;;;22.81;78.19;100450.25;4903680;29;20070;-83
2022/07/07 09:51:10;;;;;;;2.85;2.60;;;;;;;22.95;78.37;100449.94;4902474;29;20732;-87
2022/07/07 09:54:04;;;;;;;3.85;3.28;;;;;;;23.49;77.15;100456.69;4899857;29;20040;-87
2022/07/07 09:56:33;;;;;;;2.35;2.22;;;;;;;23.52;76.91;100446.28;4899637;29;20076;-88
2022/07/07 09:59:00;;;;;;;2.95;2.13;;;;;;;23.58;76.42;100454.38;4874240;29;20509;-88
2022/07/07 10:01:28;;;;;;;2.80;2.20;;;;;;;23.47;77.22;100464.13;4905996;29;20025;-88
2022/07/07 10:04:23;;;;;;;;;;;;;;;;;;;;;
2022/07/07 10:06:50;;;;;;;3.05;2.70;;;;;;;23.46;77.13;100452.63;4909270;29;20087;-86
2022/07/07 10:09:21;;;;;;;2.50;2.30;;;;;;;23.21;77.90;100451.16;4886567;29;20052;-88
2022/07/07 10:11:50;;;;;;;4.00;2.50;;;;;;;22.97;77.25;100437.91;4906067;29;20036;-88
2022/07/07 10:14:33;;;;;;;3.58;2.55;;;;;;;23.11;77.71;100446.47;4884650;29;20044;-89
2022/07/07 10:17:00;;;;;;;2.80;2.53;;;;;;;23.25;78.44;100452.31;4888470;29;20116;-86
2022/07/07 10:19:26;;;;;;;2.42;2.22;;;;;;;22.90;79.38;100450.66;4857330;29;20039;-88
2022/07/07 10:21:57;;;;;;;3.15;2.40;;;;;;;23.26;79.04;100458.47;4868526;29;20037;-86
2022/07/07 10:24:26;;;;;;;4.32;2.50;;;;;;;23.75;77.06;100462.41;4889489;29;20112;-87
2022/07/07 10:26:55;;;;;;;3.80;2.95;;;;;;;23.80;76.49;100462.47;4889030;29;20040;-89
2022/07/07 10:29:42;;;;;;;4.78;2.50;;;;;;;23.18;77.73;100462.34;4887556;29;20115;-88
2022/07/07 10:32:16;;;;;;;5.88;4.28;;;;;;;23.06;78.32;100465.09;4882945;29;20104;-89
2022/07/07 10:34:49;;;;;;;3.28;2.95;;;;;;;22.46;79.21;100456.53;4891289;29;20491;-88
2022/07/07 10:37:15;;;;;;;;;;;;;;;22.90;79.17;100471.28;4873015;29;20116;-87
2022/07/07 10:39:46;;;;;;;2.80;2.10;;;;;;;23.00;79.31;100476.00;4889573;29;20434;-88
2022/07/07 10:42:29;;;;;;;2.33;2.10;;;;;;;23.52;75.70;100478.44;4904213;29;20028;-87
2022/07/07 10:44:57;;;;;;;2.50;2.30;;;;;;;23.70;74.65;100473.84;4890758;29;20040;-87
2022/07/07 10:47:22;;;;;;;2.20;2.10;;;;;;;23.40;76.27;100483.09;4887483;29;20033;-88
2022/07/07 10:49:54;;;;;;;2.65;2.10;;;;;;;23.29;76.72;100467.91;4888483;29;20084;-88
2022/07/07 10:52:25;;;;;;;3.45;2.20;;;;;;;22.82;77.64;100470.59;4887053;29;20535;-87
2022/07/07 10:54:53;;;;;;;3.63;2.42;;;;;;;22.16;78.62;100486.19;4885806;29;20036;-87
2022/07/07 10:57:22;;;;;;;2.78;2.28;;;;;;;22.44;76.75;100481.94;4892485;29;20117;-88
2022/07/07 10:59:56;;;;;;;2.55;2.35;;;;;;;22.44;78.26;100473.91;4887848;29;20036;-88
2022/07/07 11:02:29;;;;;;;2.10;2.00;;;;;;;22.35;77.68;100471.59;4893456;29;20036;-89
2022/07/07 11:04:59;;;;;;;2.53;2.15;;;;;;;22.55;76.62;100473.06;4886054;29;20483;-88
2022/07/07 11:07:26;;;;;;;2.25;2.13;;;;;;;22.82;77.23;100477.84;4889154;29;20044;-87
2022/07/07 11:10:03;;;;;;;2.22;2.00;;;;;;;23.10;76.35;100482.31;4891105;29;20127;-89
2022/07/07 11:12:48;;;;;;;3.63;2.20;;;;;;;23.47;75.48;100481.03;4885877;29;20038;-89
2022/07/07 11:15:30;;;;;;;2.08;1.98;;;;;;;23.50;74.96;100487.78;4902884;29;20056;-88
2022/07/07 11:17:56;;;;;;;3.05;2.38;;;;;;;23.94;75.61;100489.72;4906163;29;20080;-87
2022/07/07 11:20:29;;;;;;;3.78;2.33;;;;;;;23.98;73.95;100482.81;4907539;29;20404;-88
2022/07/07 11:23:15;;;;;;;;;;;;;;;23.81;74.56;100485.53;4909114;29;20119;-87
2022/07/07 11:25:41;;;;;;;2.60;2.40;;;;;;;23.11;75.12;100483.13;4904187;29;19963;-88
2022/07/07 11:28:09;;;;;;;3.20;2.42;;;;;;;23.27;75.16;100488.78;4910180;29;20040;-91